sensor_id;sensor_type;location;lat;lon;timestamp;temperature;humidity
9971;DHT22;5026;51.494;11.974;2023-01-08T00:00:16;7.20;99.90
9971;DHT22;5026;51.494;11.974;2023-01-08T00:02:43;7.20;99.90
9971;DHT22;5026;51.494;11.974;2023-01-08T00:05:09;7.20;99.90
9971;DHT22;5026;51.494;11.974;2023-01-08T00:07:37;7.30;99.90
9971;DHT22;5026;51.494;11.974;2023-01-08T00:10:05;8.60;99.90
9971;DHT22;5026;51.494;11.974;2023-01-08T00:12:32;7.30;99.90
9971;DHT22;5026;51.494;11.974;2023-01-08T00:15:00;7.70;99.90
9971;DHT22;5026;51.494;11.974;2023-01-08T00:17:28;7.10;99.90
9971;DHT22;5026;51.494;11.974;2023-01-08T00:19:55;8.60;99.90
9971;DHT22;5026;51.494;11.974;2023-01-08T00:22:24;7.10;99.90
9971;DHT22;5026;51.494;11.974;2023-01-08T00:27:19;7.00;99.90
9971;DHT22;5026;51.494;11.974;2023-01-08T00:29:46;7.00;99.90
9971;DHT22;5026;51.494;11.974;2023-01-08T00:32:14;7.00;99.90
9971;DHT22;5026;51.494;11.974;2023-01-08T00:34:41;7.60;99.90
9971;DHT22;5026;51.494;11.974;2023-01-08T00:37:08;6.00;99.90
9971;DHT22;5026;51.494;11.974;2023-01-08T00:39:35;7.00;99.90
9971;DHT22;5026;51.494;11.974;2023-01-08T00:42:02;7.00;99.90
9971;DHT22;5026;51.494;11.974;2023-01-08T00:44:29;7.00;99.90
9971;DHT22;5026;51.494;11.974;2023-01-08T00:46:56;7.00;99.90
9971;DHT22;5026;51.494;11.974;2023-01-08T00:49:24;7.10;99.90
9971;DHT22;5026;51.494;11.974;2023-01-08T00:51:51;7.40;99.90
9971;DHT22;5026;51.494;11.974;2023-01-08T00:54:18;7.40;99.90
9971;DHT22;5026;51.494;11.974;2023-01-08T00:56:45;7.40;99.90
9971;DHT22;5026;51.494;11.974;2023-01-08T00:59:11;7.60;99.90
9971;DHT22;5026;51.494;11.974;2023-01-08T01:01:38;7.50;99.90
9971;DHT22;5026;51.494;11.974;2023-01-08T01:04:05;7.60;99.90
9971;DHT22;5026;51.494;11.974;2023-01-08T01:06:34;7.70;99.90
9971;DHT22;5026;51.494;11.974;2023-01-08T01:09:00;7.70;99.90
9971;DHT22;5026;51.494;11.974;2023-01-08T01:11:27;7.80;99.90
9971;DHT22;5026;51.494;11.974;2023-01-08T01:13:55;7.80;99.90
9971;DHT22;5026;51.494;11.974;2023-01-08T01:16:23;7.80;99.90
9971;DHT22;5026;51.494;11.974;2023-01-08T01:18:51;7.80;99.90
9971;DHT22;5026;51.494;11.974;2023-01-08T01:21:22;7.80;99.90
9971;DHT22;5026;51.494;11.974;2023-01-08T01:23:52;7.90;99.90
9971;DHT22;5026;51.494;11.974;2023-01-08T01:26:20;7.70;99.90
9971;DHT22;5026;51.494;11.974;2023-01-08T01:28:48;7.70;99.90
9971;DHT22;5026;51.494;11.974;2023-01-08T01:31:15;7.70;99.90
9971;DHT22;5026;51.494;11.974;2023-01-08T01:33:43;7.60;99.90
9971;DHT22;5026;51.494;11.974;2023-01-08T01:36:11;7.60;99.90
9971;DHT22;5026;51.494;11.974;2023-01-08T01:38:41;7.30;99.90
9971;DHT22;5026;51.494;11.974;2023-01-08T01:41:18;7.40;99.90
9971;DHT22;5026;51.494;11.974;2023-01-08T01:43:45;7.40;99.90
9971;DHT22;5026;51.494;11.974;2023-01-08T01:46:24;7.50;99.90
9971;DHT22;5026;51.494;11.974;2023-01-08T01:48:56;7.30;99.90
9971;DHT22;5026;51.494;11.974;2023-01-08T01:51:28;7.40;99.90
9971;DHT22;5026;51.494;11.974;2023-01-08T01:53:57;7.30;99.90
9971;DHT22;5026;51.494;11.974;2023-01-08T01:56:26;9.10;99.90
9971;DHT22;5026;51.494;11.974;2023-01-08T01:58:54;7.30;99.90
9971;DHT22;5026;51.494;11.974;2023-01-08T02:01:22;7.30;99.90
9971;DHT22;5026;51.494;11.974;2023-01-08T02:03:49;7.30;99.90
9971;DHT22;5026;51.494;11.974;2023-01-08T02:06:25;7.30;99.90
9971;DHT22;5026;51.494;11.974;2023-01-08T02:09:00;7.30;99.90
9971;DHT22;5026;51.494;11.974;2023-01-08T02:11:38;7.30;99.90
9971;DHT22;5026;51.494;11.974;2023-01-08T02:14:12;7.30;99.90
9971;DHT22;5026;51.494;11.974;2023-01-08T02:16:46;7.30;99.90
9971;DHT22;5026;51.494;11.974;2023-01-08T02:19:29;7.30;99.90
9971;DHT22;5026;51.494;11.974;2023-01-08T02:22:13;7.30;99.90
9971;DHT22;5026;51.494;11.974;2023-01-08T02:24:52;7.40;99.90
9971;DHT22;5026;51.494;11.974;2023-01-08T02:27:23;7.20;99.90
9971;DHT22;5026;51.494;11.974;2023-01-08T02:29:52;7.20;99.90
9971;DHT22;5026;51.494;11.974;2023-01-08T02:32:24;7.30;99.90
9971;DHT22;5026;51.494;11.974;2023-01-08T02:34:51;7.40;99.90
9971;DHT22;5026;51.494;11.974;2023-01-08T02:37:18;7.40;99.90
9971;DHT22;5026;51.494;11.974;2023-01-08T02:40:01;7.50;99.90
9971;DHT22;5026;51.494;11.974;2023-01-08T02:42:35;7.50;99.90
9971;DHT22;5026;51.494;11.974;2023-01-08T02:45:12;9.00;99.90
9971;DHT22;5026;51.494;11.974;2023-01-08T02:47:42;7.60;99.90
9971;DHT22;5026;51.494;11.974;2023-01-08T02:50:17;7.80;99.90
9971;DHT22;5026;51.494;11.974;2023-01-08T02:52:53;7.60;99.90
9971;DHT22;5026;51.494;11.974;2023-01-08T02:55:23;7.70;99.90
9971;DHT22;5026;51.494;11.974;2023-01-08T02:57:53;7.70;99.90
9971;DHT22;5026;51.494;11.974;2023-01-08T03:00:20;7.70;99.90
9971;DHT22;5026;51.494;11.974;2023-01-08T03:02:49;7.70;99.90
9971;DHT22;5026;51.494;11.974;2023-01-08T03:05:22;7.50;99.90
9971;DHT22;5026;51.494;11.974;2023-01-08T03:07:50;7.80;99.90
9971;DHT22;5026;51.494;11.974;2023-01-08T03:10:21;7.20;99.90
9971;DHT22;5026;51.494;11.974;2023-01-08T03:12:53;7.20;99.90
9971;DHT22;5026;51.494;11.974;2023-01-08T03:15:24;7.20;99.90
9971;DHT22;5026;51.494;11.974;2023-01-08T03:17:56;7.20;99.90
9971;DHT22;5026;51.494;11.974;2023-01-08T03:20:24;7.20;99.90
9971;DHT22;5026;51.494;11.974;2023-01-08T03:22:54;7.30;99.90
9971;DHT22;5026;51.494;11.974;2023-01-08T03:25:24;7.90;99.90
9971;DHT22;5026;51.494;11.974;2023-01-08T03:27:55;7.50;99.90
9971;DHT22;5026;51.494;11.974;2023-01-08T03:30:24;7.50;99.90
9971;DHT22;5026;51.494;11.974;2023-01-08T03:32:53;7.50;99.90
9971;DHT22;5026;51.494;11.974;2023-01-08T03:35:22;7.50;99.90
9971;DHT22;5026;51.494;11.974;2023-01-08T03:37:55;7.50;99.90
9971;DHT22;5026;51.494;11.974;2023-01-08T03:40:26;7.50;99.90
9971;DHT22;5026;51.494;11.974;2023-01-08T03:42:56;7.50;99.90
9971;DHT22;5026;51.494;11.974;2023-01-08T03:45:24;7.40;99.90
9971;DHT22;5026;51.494;11.974;2023-01-08T03:47:53;7.40;99.90
9971;DHT22;5026;51.494;11.974;2023-01-08T03:50:22;7.40;99.90
9971;DHT22;5026;51.494;11.974;2023-01-08T03:52:51;7.80;99.90
9971;DHT22;5026;51.494;11.974;2023-01-08T03:55:18;7.40;99.90
9971;DHT22;5026;51.494;11.974;2023-01-08T03:57:45;7.30;99.90
9971;DHT22;5026;51.494;11.974;2023-01-08T04:00:14;7.40;99.90
9971;DHT22;5026;51.494;11.974;2023-01-08T04:02:42;7.40;99.90
9971;DHT22;5026;51.494;11.974;2023-01-08T04:05:09;7.40;99.90
9971;DHT22;5026;51.494;11.974;2023-01-08T04:07:36;7.50;99.90
9971;DHT22;5026;51.494;11.974;2023-01-08T04:10:04;7.50;99.90
9971;DHT22;5026;51.494;11.974;2023-01-08T04:12:31;7.50;99.90
9971;DHT22;5026;51.494;11.974;2023-01-08T04:14:58;7.50;99.90
9971;DHT22;5026;51.494;11.974;2023-01-08T04:17:26;7.60;99.90
9971;DHT22;5026;51.494;11.974;2023-01-08T04:19:53;7.60;99.90
9971;DHT22;5026;51.494;11.974;2023-01-08T04:22:20;7.70;99.90
9971;DHT22;5026;51.494;11.974;2023-01-08T04:24:47;7.80;99.90
9971;DHT22;5026;51.494;11.974;2023-01-08T04:27:14;7.80;99.90
9971;DHT22;5026;51.494;11.974;2023-01-08T04:29:41;7.90;99.90
9971;DHT22;5026;51.494;11.974;2023-01-08T04:32:08;8.00;99.90
9971;DHT22;5026;51.494;11.974;2023-01-08T04:34:36;8.20;99.90
9971;DHT22;5026;51.494;11.974;2023-01-08T04:37:03;8.10;99.90
9971;DHT22;5026;51.494;11.974;2023-01-08T04:39:30;8.20;99.90
9971;DHT22;5026;51.494;11.974;2023-01-08T04:41:57;8.30;99.90
9971;DHT22;5026;51.494;11.974;2023-01-08T04:44:24;8.30;99.90
9971;DHT22;5026;51.494;11.974;2023-01-08T04:46:50;8.30;99.90
9971;DHT22;5026;51.494;11.974;2023-01-08T04:49:17;8.20;99.90
9971;DHT22;5026;51.494;11.974;2023-01-08T04:51:46;9.70;99.90
9971;DHT22;5026;51.494;11.974;2023-01-08T04:54:13;8.10;99.90
9971;DHT22;5026;51.494;11.974;2023-01-08T04:56:40;8.00;99.90
9971;DHT22;5026;51.494;11.974;2023-01-08T04:59:07;8.10;99.90
9971;DHT22;5026;51.494;11.974;2023-01-08T05:01:34;8.10;99.90
9971;DHT22;5026;51.494;11.974;2023-01-08T05:04:02;8.10;99.90
9971;DHT22;5026;51.494;11.974;2023-01-08T05:06:30;8.90;99.90
9971;DHT22;5026;51.494;11.974;2023-01-08T05:08:59;8.30;99.90
9971;DHT22;5026;51.494;11.974;2023-01-08T05:11:26;8.30;99.90
9971;DHT22;5026;51.494;11.974;2023-01-08T05:13:53;8.40;99.90
9971;DHT22;5026;51.494;11.974;2023-01-08T05:16:21;8.40;99.90
9971;DHT22;5026;51.494;11.974;2023-01-08T05:18:49;8.40;99.90
9971;DHT22;5026;51.494;11.974;2023-01-08T05:21:16;8.40;99.90
9971;DHT22;5026;51.494;11.974;2023-01-08T05:23:44;8.40;99.90
9971;DHT22;5026;51.494;11.974;2023-01-08T05:26:14;8.40;99.90
9971;DHT22;5026;51.494;11.974;2023-01-08T05:28:41;8.40;99.90
9971;DHT22;5026;51.494;11.974;2023-01-08T05:31:08;8.40;99.90
9971;DHT22;5026;51.494;11.974;2023-01-08T05:33:36;8.50;99.90
9971;DHT22;5026;51.494;11.974;2023-01-08T05:36:04;8.50;99.90
9971;DHT22;5026;51.494;11.974;2023-01-08T05:38:31;8.60;99.90
9971;DHT22;5026;51.494;11.974;2023-01-08T05:40:58;8.60;99.90
9971;DHT22;5026;51.494;11.974;2023-01-08T05:43:27;8.60;99.90
9971;DHT22;5026;51.494;11.974;2023-01-08T05:45:53;8.60;99.90
9971;DHT22;5026;51.494;11.974;2023-01-08T05:48:23;8.90;99.90
9971;DHT22;5026;51.494;11.974;2023-01-08T05:50:49;8.60;99.90
9971;DHT22;5026;51.494;11.974;2023-01-08T05:53:17;8.70;99.90
9971;DHT22;5026;51.494;11.974;2023-01-08T05:55:44;8.60;99.90
9971;DHT22;5026;51.494;11.974;2023-01-08T05:58:10;8.70;99.90
9971;DHT22;5026;51.494;11.974;2023-01-08T06:00:39;8.70;99.90
9971;DHT22;5026;51.494;11.974;2023-01-08T06:03:06;8.70;99.90
9971;DHT22;5026;51.494;11.974;2023-01-08T06:05:33;8.70;99.90
9971;DHT22;5026;51.494;11.974;2023-01-08T06:08:00;8.70;99.90
9971;DHT22;5026;51.494;11.974;2023-01-08T06:10:27;8.70;99.90
9971;DHT22;5026;51.494;11.974;2023-01-08T06:12:54;8.60;99.90
9971;DHT22;5026;51.494;11.974;2023-01-08T06:15:21;8.70;99.90
9971;DHT22;5026;51.494;11.974;2023-01-08T06:17:50;8.70;99.90
9971;DHT22;5026;51.494;11.974;2023-01-08T06:20:17;8.70;99.90
9971;DHT22;5026;51.494;11.974;2023-01-08T06:22:44;8.80;99.90
9971;DHT22;5026;51.494;11.974;2023-01-08T06:25:11;8.80;99.90
9971;DHT22;5026;51.494;11.974;2023-01-08T06:27:38;8.90;99.90
9971;DHT22;5026;51.494;11.974;2023-01-08T06:30:06;8.80;99.90
9971;DHT22;5026;51.494;11.974;2023-01-08T06:32:33;8.90;99.90
9971;DHT22;5026;51.494;11.974;2023-01-08T06:35:01;8.90;99.90
9971;DHT22;5026;51.494;11.974;2023-01-08T06:37:28;8.90;99.90
9971;DHT22;5026;51.494;11.974;2023-01-08T06:39:55;9.00;99.90
9971;DHT22;5026;51.494;11.974;2023-01-08T06:42:22;9.00;99.90
9971;DHT22;5026;51.494;11.974;2023-01-08T06:44:49;8.90;99.90
9971;DHT22;5026;51.494;11.974;2023-01-08T06:47:16;8.90;99.90
9971;DHT22;5026;51.494;11.974;2023-01-08T06:49:43;9.00;99.90
9971;DHT22;5026;51.494;11.974;2023-01-08T06:52:11;9.00;99.90
9971;DHT22;5026;51.494;11.974;2023-01-08T06:54:38;9.40;99.90
9971;DHT22;5026;51.494;11.974;2023-01-08T06:57:05;9.00;99.90
9971;DHT22;5026;51.494;11.974;2023-01-08T06:59:32;9.00;99.90
9971;DHT22;5026;51.494;11.974;2023-01-08T07:01:59;9.00;99.90
9971;DHT22;5026;51.494;11.974;2023-01-08T07:04:26;9.00;99.90
9971;DHT22;5026;51.494;11.974;2023-01-08T07:06:53;9.00;99.90
9971;DHT22;5026;51.494;11.974;2023-01-08T07:09:21;9.00;99.90
9971;DHT22;5026;51.494;11.974;2023-01-08T07:11:48;9.00;99.90
9971;DHT22;5026;51.494;11.974;2023-01-08T07:14:15;9.00;99.90
9971;DHT22;5026;51.494;11.974;2023-01-08T07:16:42;9.00;99.90
9971;DHT22;5026;51.494;11.974;2023-01-08T07:19:09;9.00;99.90
9971;DHT22;5026;51.494;11.974;2023-01-08T07:21:35;8.90;99.90
9971;DHT22;5026;51.494;11.974;2023-01-08T07:24:03;8.90;99.90
9971;DHT22;5026;51.494;11.974;2023-01-08T07:26:31;8.90;99.90
9971;DHT22;5026;51.494;11.974;2023-01-08T07:28:58;8.90;99.90
9971;DHT22;5026;51.494;11.974;2023-01-08T07:31:27;9.00;99.90
9971;DHT22;5026;51.494;11.974;2023-01-08T07:33:54;9.00;99.90
9971;DHT22;5026;51.494;11.974;2023-01-08T07:36:20;8.90;99.90
9971;DHT22;5026;51.494;11.974;2023-01-08T07:38:49;8.90;99.90
9971;DHT22;5026;51.494;11.974;2023-01-08T07:41:16;8.90;99.90
9971;DHT22;5026;51.494;11.974;2023-01-08T07:43:46;8.90;99.90
9971;DHT22;5026;51.494;11.974;2023-01-08T07:46:13;8.90;99.90
9971;DHT22;5026;51.494;11.974;2023-01-08T07:48:40;8.90;99.90
9971;DHT22;5026;51.494;11.974;2023-01-08T07:51:08;8.90;99.90
9971;DHT22;5026;51.494;11.974;2023-01-08T07:53:35;8.90;99.90
9971;DHT22;5026;51.494;11.974;2023-01-08T07:56:04;8.90;99.90
9971;DHT22;5026;51.494;11.974;2023-01-08T07:58:32;8.90;99.90
9971;DHT22;5026;51.494;11.974;2023-01-08T08:01:01;8.90;99.90
9971;DHT22;5026;51.494;11.974;2023-01-08T08:03:28;9.00;99.90
9971;DHT22;5026;51.494;11.974;2023-01-08T08:05:55;9.00;99.90
9971;DHT22;5026;51.494;11.974;2023-01-08T08:08:21;9.00;99.90
9971;DHT22;5026;51.494;11.974;2023-01-08T08:10:48;9.10;99.90
9971;DHT22;5026;51.494;11.974;2023-01-08T08:13:15;9.10;99.90
9971;DHT22;5026;51.494;11.974;2023-01-08T08:15:42;9.10;99.90
9971;DHT22;5026;51.494;11.974;2023-01-08T08:18:10;9.20;99.90
9971;DHT22;5026;51.494;11.974;2023-01-08T08:20:38;9.20;99.90
9971;DHT22;5026;51.494;11.974;2023-01-08T08:23:06;9.20;99.90
9971;DHT22;5026;51.494;11.974;2023-01-08T08:25:34;9.20;99.90
9971;DHT22;5026;51.494;11.974;2023-01-08T08:28:01;10.30;99.90
9971;DHT22;5026;51.494;11.974;2023-01-08T08:30:30;9.20;99.90
9971;DHT22;5026;51.494;11.974;2023-01-08T08:32:58;9.20;99.90
9971;DHT22;5026;51.494;11.974;2023-01-08T08:35:27;9.20;99.90
9971;DHT22;5026;51.494;11.974;2023-01-08T08:37:55;9.20;99.90
9971;DHT22;5026;51.494;11.974;2023-01-08T08:40:23;9.20;99.90
9971;DHT22;5026;51.494;11.974;2023-01-08T08:42:54;9.30;99.90
9971;DHT22;5026;51.494;11.974;2023-01-08T08:45:22;9.20;99.90
9971;DHT22;5026;51.494;11.974;2023-01-08T08:47:49;9.20;99.90
9971;DHT22;5026;51.494;11.974;2023-01-08T08:50:16;9.40;99.90
9971;DHT22;5026;51.494;11.974;2023-01-08T08:52:45;9.20;99.90
9971;DHT22;5026;51.494;11.974;2023-01-08T08:55:14;9.20;99.90
9971;DHT22;5026;51.494;11.974;2023-01-08T08:57:41;9.20;99.90
9971;DHT22;5026;51.494;11.974;2023-01-08T09:00:09;9.20;99.90
9971;DHT22;5026;51.494;11.974;2023-01-08T09:02:36;9.30;99.90
9971;DHT22;5026;51.494;11.974;2023-01-08T09:05:04;9.30;99.90
9971;DHT22;5026;51.494;11.974;2023-01-08T09:07:31;9.30;99.90
9971;DHT22;5026;51.494;11.974;2023-01-08T09:10:00;9.40;99.90
9971;DHT22;5026;51.494;11.974;2023-01-08T09:12:27;9.40;99.90
9971;DHT22;5026;51.494;11.974;2023-01-08T09:14:54;9.40;99.90
9971;DHT22;5026;51.494;11.974;2023-01-08T09:17:21;9.50;99.90
9971;DHT22;5026;51.494;11.974;2023-01-08T09:19:49;9.60;99.90
9971;DHT22;5026;51.494;11.974;2023-01-08T09:22:16;9.60;99.90
9971;DHT22;5026;51.494;11.974;2023-01-08T09:24:43;9.70;99.90
9971;DHT22;5026;51.494;11.974;2023-01-08T09:27:12;9.70;99.90
9971;DHT22;5026;51.494;11.974;2023-01-08T09:29:39;9.70;99.90
9971;DHT22;5026;51.494;11.974;2023-01-08T09:32:07;9.70;99.90
9971;DHT22;5026;51.494;11.974;2023-01-08T09:34:36;9.70;99.90
9971;DHT22;5026;51.494;11.974;2023-01-08T09:37:04;9.70;99.90
9971;DHT22;5026;51.494;11.974;2023-01-08T09:39:31;9.70;99.90
9971;DHT22;5026;51.494;11.974;2023-01-08T09:42:01;8.70;99.90
9971;DHT22;5026;51.494;11.974;2023-01-08T09:44:34;9.70;99.90
9971;DHT22;5026;51.494;11.974;2023-01-08T09:47:18;9.80;99.90
9971;DHT22;5026;51.494;11.974;2023-01-08T09:49:47;9.80;99.90
9971;DHT22;5026;51.494;11.974;2023-01-08T09:52:14;9.80;99.90
9971;DHT22;5026;51.494;11.974;2023-01-08T09:54:41;9.80;99.90
9971;DHT22;5026;51.494;11.974;2023-01-08T09:57:11;9.80;99.90
9971;DHT22;5026;51.494;11.974;2023-01-08T09:59:40;9.80;99.90
9971;DHT22;5026;51.494;11.974;2023-01-08T10:02:13;9.80;99.90
9971;DHT22;5026;51.494;11.974;2023-01-08T10:04:40;9.80;99.90
9971;DHT22;5026;51.494;11.974;2023-01-08T10:07:12;9.80;99.90
9971;DHT22;5026;51.494;11.974;2023-01-08T10:09:43;9.80;99.90
9971;DHT22;5026;51.494;11.974;2023-01-08T10:15:14;9.80;99.90
9971;DHT22;5026;51.494;11.974;2023-01-08T10:17:45;9.80;99.90
9971;DHT22;5026;51.494;11.974;2023-01-08T10:20:15;9.80;99.90
9971;DHT22;5026;51.494;11.974;2023-01-08T10:22:42;9.80;99.90
9971;DHT22;5026;51.494;11.974;2023-01-08T10:25:12;9.80;99.90
9971;DHT22;5026;51.494;11.974;2023-01-08T10:27:47;9.80;99.90
9971;DHT22;5026;51.494;11.974;2023-01-08T10:30:18;9.80;99.90
9971;DHT22;5026;51.494;11.974;2023-01-08T10:32:51;9.80;99.90
9971;DHT22;5026;51.494;11.974;2023-01-08T10:35:20;9.80;99.90
9971;DHT22;5026;51.494;11.974;2023-01-08T10:37:51;9.90;99.90
9971;DHT22;5026;51.494;11.974;2023-01-08T10:40:23;9.80;99.90
9971;DHT22;5026;51.494;11.974;2023-01-08T10:42:51;9.90;99.90
9971;DHT22;5026;51.494;11.974;2023-01-08T10:45:23;10.00;99.90
9971;DHT22;5026;51.494;11.974;2023-01-08T10:47:56;10.00;99.90
9971;DHT22;5026;51.494;11.974;2023-01-08T10:50:27;10.00;99.90
9971;DHT22;5026;51.494;11.974;2023-01-08T10:52:56;10.00;99.90
9971;DHT22;5026;51.494;11.974;2023-01-08T10:55:26;10.00;99.90
9971;DHT22;5026;51.494;11.974;2023-01-08T10:57:55;10.10;99.90
9971;DHT22;5026;51.494;11.974;2023-01-08T11:00:28;10.10;99.90
9971;DHT22;5026;51.494;11.974;2023-01-08T11:02:57;10.10;99.90
9971;DHT22;5026;51.494;11.974;2023-01-08T11:05:32;10.20;99.90
9971;DHT22;5026;51.494;11.974;2023-01-08T11:08:01;10.30;99.90
9971;DHT22;5026;51.494;11.974;2023-01-08T11:10:32;10.40;99.90
9971;DHT22;5026;51.494;11.974;2023-01-08T11:13:02;10.50;99.90
9971;DHT22;5026;51.494;11.974;2023-01-08T11:15:33;11.90;99.90
9971;DHT22;5026;51.494;11.974;2023-01-08T11:18:16;10.50;99.90
9971;DHT22;5026;51.494;11.974;2023-01-08T11:20:44;10.50;99.90
9971;DHT22;5026;51.494;11.974;2023-01-08T11:23:15;10.50;99.90
9971;DHT22;5026;51.494;11.974;2023-01-08T11:25:49;10.50;99.90
9971;DHT22;5026;51.494;11.974;2023-01-08T11:28:24;10.50;99.90
9971;DHT22;5026;51.494;11.974;2023-01-08T11:31:00;10.50;99.90
9971;DHT22;5026;51.494;11.974;2023-01-08T11:33:31;10.60;99.90
9971;DHT22;5026;51.494;11.974;2023-01-08T11:36:03;10.50;99.90
9971;DHT22;5026;51.494;11.974;2023-01-08T11:38:33;10.50;99.90
9971;DHT22;5026;51.494;11.974;2023-01-08T11:41:02;10.40;99.90
9971;DHT22;5026;51.494;11.974;2023-01-08T11:43:36;10.40;99.90
9971;DHT22;5026;51.494;11.974;2023-01-08T11:46:15;12.00;99.90
9971;DHT22;5026;51.494;11.974;2023-01-08T11:48:53;10.40;99.90
9971;DHT22;5026;51.494;11.974;2023-01-08T11:51:29;10.40;99.90
9971;DHT22;5026;51.494;11.974;2023-01-08T11:54:01;10.40;99.90
9971;DHT22;5026;51.494;11.974;2023-01-08T11:56:34;11.40;99.90
9971;DHT22;5026;51.494;11.974;2023-01-08T11:59:06;11.80;99.90
9971;DHT22;5026;51.494;11.974;2023-01-08T12:01:38;10.40;99.90
9971;DHT22;5026;51.494;11.974;2023-01-08T12:04:22;10.50;99.90
9971;DHT22;5026;51.494;11.974;2023-01-08T12:06:54;10.50;99.90
9971;DHT22;5026;51.494;11.974;2023-01-08T12:09:29;10.60;99.90
9971;DHT22;5026;51.494;11.974;2023-01-08T12:12:06;10.70;99.90
9971;DHT22;5026;51.494;11.974;2023-01-08T12:14:51;10.80;99.90
9971;DHT22;5026;51.494;11.974;2023-01-08T12:17:44;10.80;99.90
9971;DHT22;5026;51.494;11.974;2023-01-08T12:20:24;10.80;99.90
9971;DHT22;5026;51.494;11.974;2023-01-08T12:23:01;10.90;99.90
9971;DHT22;5026;51.494;11.974;2023-01-08T12:25:44;10.90;99.90
9971;DHT22;5026;51.494;11.974;2023-01-08T12:28:32;10.90;99.90
9971;DHT22;5026;51.494;11.974;2023-01-08T12:34:01;10.80;99.90
9971;DHT22;5026;51.494;11.974;2023-01-08T12:36:36;10.70;99.90
9971;DHT22;5026;51.494;11.974;2023-01-08T12:39:07;10.70;99.90
9971;DHT22;5026;51.494;11.974;2023-01-08T12:41:37;10.60;99.90
9971;DHT22;5026;51.494;11.974;2023-01-08T12:44:06;11.60;99.90
9971;DHT22;5026;51.494;11.974;2023-01-08T12:46:36;10.50;99.90
9971;DHT22;5026;51.494;11.974;2023-01-08T12:49:06;10.50;99.90
9971;DHT22;5026;51.494;11.974;2023-01-08T12:51:37;10.50;99.90
9971;DHT22;5026;51.494;11.974;2023-01-08T12:54:10;10.40;99.90
9971;DHT22;5026;51.494;11.974;2023-01-08T12:56:44;10.40;99.90
9971;DHT22;5026;51.494;11.974;2023-01-08T12:59:23;10.40;99.90
9971;DHT22;5026;51.494;11.974;2023-01-08T13:01:58;10.30;99.90
9971;DHT22;5026;51.494;11.974;2023-01-08T13:04:40;10.30;99.90
9971;DHT22;5026;51.494;11.974;2023-01-08T13:07:15;10.30;99.90
9971;DHT22;5026;51.494;11.974;2023-01-08T13:09:43;10.30;99.90
9971;DHT22;5026;51.494;11.974;2023-01-08T13:12:13;10.30;99.90
9971;DHT22;5026;51.494;11.974;2023-01-08T13:14:41;10.30;99.90
9971;DHT22;5026;51.494;11.974;2023-01-08T13:17:16;10.20;99.90
9971;DHT22;5026;51.494;11.974;2023-01-08T13:19:51;10.20;99.90
9971;DHT22;5026;51.494;11.974;2023-01-08T13:22:26;10.30;99.90
9971;DHT22;5026;51.494;11.974;2023-01-08T13:25:08;10.30;99.90
9971;DHT22;5026;51.494;11.974;2023-01-08T13:27:36;10.20;99.90
9971;DHT22;5026;51.494;11.974;2023-01-08T13:32:46;10.20;99.90
9971;DHT22;5026;51.494;11.974;2023-01-08T13:35:23;10.20;99.90
9971;DHT22;5026;51.494;11.974;2023-01-08T13:37:51;10.20;99.90
9971;DHT22;5026;51.494;11.974;2023-01-08T13:40:37;10.20;99.90
9971;DHT22;5026;51.494;11.974;2023-01-08T13:43:10;10.30;99.90
9971;DHT22;5026;51.494;11.974;2023-01-08T13:45:38;10.30;99.90
9971;DHT22;5026;51.494;11.974;2023-01-08T13:48:05;10.30;99.90
9971;DHT22;5026;51.494;11.974;2023-01-08T13:50:35;10.30;99.90
9971;DHT22;5026;51.494;11.974;2023-01-08T13:53:03;10.30;99.90
9971;DHT22;5026;51.494;11.974;2023-01-08T13:55:34;10.30;99.90
9971;DHT22;5026;51.494;11.974;2023-01-08T13:58:04;10.20;99.90
9971;DHT22;5026;51.494;11.974;2023-01-08T14:00:43;10.20;99.90
9971;DHT22;5026;51.494;11.974;2023-01-08T14:03:21;10.20;99.90
9971;DHT22;5026;51.494;11.974;2023-01-08T14:05:49;9.60;99.90
9971;DHT22;5026;51.494;11.974;2023-01-08T14:08:21;10.10;99.90
9971;DHT22;5026;51.494;11.974;2023-01-08T14:10:48;10.10;99.90
9971;DHT22;5026;51.494;11.974;2023-01-08T14:13:16;10.00;99.90
9971;DHT22;5026;51.494;11.974;2023-01-08T14:15:45;10.00;99.90
9971;DHT22;5026;51.494;11.974;2023-01-08T14:18:13;10.10;99.90
9971;DHT22;5026;51.494;11.974;2023-01-08T14:20:43;10.00;99.90
9971;DHT22;5026;51.494;11.974;2023-01-08T14:23:16;10.00;99.90
9971;DHT22;5026;51.494;11.974;2023-01-08T14:25:46;10.10;99.90
9971;DHT22;5026;51.494;11.974;2023-01-08T14:28:15;10.10;99.90
9971;DHT22;5026;51.494;11.974;2023-01-08T14:30:53;10.20;99.90
9971;DHT22;5026;51.494;11.974;2023-01-08T14:33:23;10.20;99.90
9971;DHT22;5026;51.494;11.974;2023-01-08T14:35:50;10.10;99.90
9971;DHT22;5026;51.494;11.974;2023-01-08T14:38:22;10.20;99.90
9971;DHT22;5026;51.494;11.974;2023-01-08T14:40:57;10.20;99.90
9971;DHT22;5026;51.494;11.974;2023-01-08T14:43:25;10.30;99.90
9971;DHT22;5026;51.494;11.974;2023-01-08T14:45:53;10.40;99.90
9971;DHT22;5026;51.494;11.974;2023-01-08T14:48:23;10.40;99.90
9971;DHT22;5026;51.494;11.974;2023-01-08T14:51:02;10.30;99.90
9971;DHT22;5026;51.494;11.974;2023-01-08T14:53:34;10.30;99.90
9971;DHT22;5026;51.494;11.974;2023-01-08T14:56:01;10.20;99.90
9971;DHT22;5026;51.494;11.974;2023-01-08T14:58:34;10.10;99.90
9971;DHT22;5026;51.494;11.974;2023-01-08T15:01:05;10.00;99.90
9971;DHT22;5026;51.494;11.974;2023-01-08T15:03:35;10.00;99.90
9971;DHT22;5026;51.494;11.974;2023-01-08T15:06:03;9.90;99.90
9971;DHT22;5026;51.494;11.974;2023-01-08T15:08:36;9.90;99.90
9971;DHT22;5026;51.494;11.974;2023-01-08T15:11:05;9.80;99.90
9971;DHT22;5026;51.494;11.974;2023-01-08T15:13:35;9.80;99.90
9971;DHT22;5026;51.494;11.974;2023-01-08T15:16:07;9.70;99.90
9971;DHT22;5026;51.494;11.974;2023-01-08T15:18:46;9.60;99.90
9971;DHT22;5026;51.494;11.974;2023-01-08T15:21:17;9.60;99.90
9971;DHT22;5026;51.494;11.974;2023-01-08T15:23:48;9.40;99.90
9971;DHT22;5026;51.494;11.974;2023-01-08T15:26:16;9.40;99.90
9971;DHT22;5026;51.494;11.974;2023-01-08T15:28:48;9.30;99.90
9971;DHT22;5026;51.494;11.974;2023-01-08T15:31:27;9.30;99.90
9971;DHT22;5026;51.494;11.974;2023-01-08T15:33:55;9.40;99.90
9971;DHT22;5026;51.494;11.974;2023-01-08T15:36:23;9.40;99.90
9971;DHT22;5026;51.494;11.974;2023-01-08T15:38:52;9.40;99.90
9971;DHT22;5026;51.494;11.974;2023-01-08T15:41:20;9.30;99.90
9971;DHT22;5026;51.494;11.974;2023-01-08T15:44:01;9.20;99.90
9971;DHT22;5026;51.494;11.974;2023-01-08T15:46:28;9.20;99.90
9971;DHT22;5026;51.494;11.974;2023-01-08T15:48:54;9.20;99.90
9971;DHT22;5026;51.494;11.974;2023-01-08T15:51:22;9.10;99.90
9971;DHT22;5026;51.494;11.974;2023-01-08T15:53:51;9.10;99.90
9971;DHT22;5026;51.494;11.974;2023-01-08T15:56:17;9.00;99.90
9971;DHT22;5026;51.494;11.974;2023-01-08T15:58:44;8.90;99.90
9971;DHT22;5026;51.494;11.974;2023-01-08T16:01:11;9.20;99.90
9971;DHT22;5026;51.494;11.974;2023-01-08T16:03:38;8.90;99.90
9971;DHT22;5026;51.494;11.974;2023-01-08T16:06:06;8.80;99.90
9971;DHT22;5026;51.494;11.974;2023-01-08T16:08:33;8.80;99.90
9971;DHT22;5026;51.494;11.974;2023-01-08T16:11:01;8.90;99.90
9971;DHT22;5026;51.494;11.974;2023-01-08T16:13:28;8.90;99.90
9971;DHT22;5026;51.494;11.974;2023-01-08T16:15:55;8.90;99.90
9971;DHT22;5026;51.494;11.974;2023-01-08T16:18:22;8.90;99.90
9971;DHT22;5026;51.494;11.974;2023-01-08T16:20:49;8.80;99.90
9971;DHT22;5026;51.494;11.974;2023-01-08T16:23:16;8.80;99.90